createdAt,value
2019-04-27T00:01:23.225Z,5.93
2019-04-27T00:04:11.695Z,6.47
2019-04-27T00:06:42.992Z,5.27
2019-04-27T00:09:30.772Z,6.03
2019-04-27T00:12:22.423Z,5.90
2019-04-27T00:17:49.594Z,6.33
2019-04-27T00:20:37.138Z,5.70
2019-04-27T00:23:08.046Z,6.20
2019-04-27T00:25:36.372Z,6.00
2019-04-27T00:28:05.473Z,6.63
2019-04-27T00:30:35.635Z,7.53
2019-04-27T00:33:24.421Z,6.03
2019-04-27T00:39:00.277Z,7.27
2019-04-27T00:41:28.799Z,7.50
2019-04-27T00:43:57.131Z,7.07
2019-04-27T00:46:25.433Z,6.83
2019-04-27T00:48:53.749Z,6.73
2019-04-27T00:51:23.168Z,6.60
2019-04-27T00:53:53.607Z,6.60
2019-04-27T00:59:39.180Z,5.53
2019-04-27T01:02:26.462Z,6.13
2019-04-27T01:08:03.831Z,6.03
2019-04-27T01:10:33.452Z,5.73
2019-04-27T01:13:03.369Z,6.07
2019-04-27T01:15:34.016Z,6.20
2019-04-27T01:18:11.969Z,5.80
2019-04-27T01:20:33.677Z,6.40
2019-04-27T01:23:01.962Z,6.20
2019-04-27T01:31:03.323Z,6.03
2019-04-27T01:33:33.833Z,5.57
2019-04-27T01:36:02.198Z,5.60
2019-04-27T01:38:49.718Z,6.20
2019-04-27T01:41:19.180Z,7.17
2019-04-27T01:43:49.064Z,6.13
2019-04-27T01:48:51.869Z,7.73
2019-04-27T01:51:21.085Z,8.23
2019-04-27T01:53:50.161Z,7.90
2019-04-27T01:56:19.503Z,7.27
2019-04-27T01:58:49.424Z,6.80
2019-04-27T02:01:56.302Z,6.57
2019-04-27T02:04:43.682Z,6.00
2019-04-27T02:07:12.164Z,6.37
2019-04-27T02:09:40.494Z,6.20
2019-04-27T02:12:09.363Z,5.90
2019-04-27T02:14:39.051Z,6.03
2019-04-27T02:17:09.720Z,5.90
2019-04-27T02:19:39.280Z,6.63
2019-04-27T02:22:08.813Z,8.87
2019-04-27T02:24:38.893Z,7.90
2019-04-27T02:27:08.840Z,8.30
2019-04-27T02:29:55.874Z,8.50
2019-04-27T02:32:43.253Z,8.60
2019-04-27T02:35:15.013Z,9.10
2019-04-27T02:37:43.381Z,9.27
2019-04-27T02:40:30.753Z,9.03
2019-04-27T02:42:59.870Z,9.10
2019-04-27T02:45:30.338Z,8.83
2019-04-27T02:47:59.796Z,8.63
2019-04-27T02:50:29.320Z,8.60
2019-04-27T02:53:00.269Z,9.70
2019-04-27T02:55:29.504Z,8.57
2019-04-27T02:57:59.899Z,9.10
2019-04-27T03:00:31.915Z,9.87
2019-04-27T03:05:42.358Z,7.77
2019-04-27T03:08:10.682Z,9.40
2019-04-27T03:10:40.124Z,8.40
2019-04-27T03:13:30.162Z,8.50
2019-04-27T03:19:14.949Z,8.50
2019-04-27T03:21:55.293Z,8.57
2019-04-27T03:24:42.548Z,9.20
2019-04-27T03:30:00.336Z,8.70
2019-04-27T03:32:31.309Z,7.93
2019-04-27T03:35:02.831Z,8.13
2019-04-27T03:37:30.337Z,9.40
2019-04-27T03:45:29.898Z,9.23
2019-04-27T03:48:00.378Z,9.00
2019-04-27T03:50:50.576Z,8.97
2019-04-27T03:53:39.716Z,8.87
2019-04-27T03:56:27.177Z,11.13
2019-04-27T03:59:03.335Z,9.80
2019-04-27T04:01:31.638Z,9.23
2019-04-27T04:04:00.081Z,8.90
2019-04-27T04:06:29.896Z,9.27
2019-04-27T04:09:00.207Z,8.40
2019-04-27T04:17:12.679Z,8.50
2019-04-27T04:19:54.543Z,8.73
2019-04-27T04:22:30.270Z,9.30
2019-04-27T04:25:00.126Z,9.77
2019-04-27T04:27:30.096Z,8.43
2019-04-27T04:29:59.757Z,8.87
2019-04-27T04:32:29.743Z,7.50
2019-04-27T04:38:10.073Z,7.90
2019-04-27T04:40:56.202Z,7.57
2019-04-27T04:43:43.375Z,7.47
2019-04-27T04:46:30.566Z,7.37
2019-04-27T04:51:50.172Z,7.60
2019-04-27T04:54:19.775Z,8.83
2019-04-27T04:56:49.330Z,8.40
2019-04-27T04:59:20.174Z,9.10
2019-04-27T05:02:02.717Z,8.40
2019-04-27T05:04:19.345Z,8.87
2019-04-27T05:06:49.215Z,8.23
2019-04-27T05:09:19.399Z,8.50
2019-04-27T05:11:49.329Z,8.37
2019-04-27T05:14:19.810Z,8.00
2019-04-27T05:16:48.900Z,8.47
2019-04-27T05:19:18.844Z,8.27
2019-04-27T05:21:49.149Z,7.80
2019-04-27T05:24:19.037Z,7.10
2019-04-27T05:27:06.441Z,6.73
2019-04-27T05:29:53.758Z,7.17
2019-04-27T05:32:22.238Z,5.93
2019-04-27T05:37:45.023Z,5.23
2019-04-27T05:46:41.840Z,5.00
2019-04-27T05:51:51.878Z,4.63
2019-04-27T05:54:20.321Z,4.80
2019-04-27T05:59:40.174Z,4.17
2019-04-27T06:02:09.402Z,4.10
2019-04-27T06:04:39.049Z,3.90
2019-04-27T06:07:09.199Z,4.77
2019-04-27T06:09:39.149Z,5.93
2019-04-27T06:12:08.960Z,5.30
2019-04-27T06:17:33.032Z,5.43
2019-04-27T06:20:01.349Z,4.80
2019-04-27T06:22:29.736Z,4.90
2019-04-27T06:25:16.919Z,5.07
2019-04-27T06:27:45.805Z,4.30
2019-04-27T06:33:01.545Z,4.57
2019-04-27T06:35:29.869Z,5.03
2019-04-27T06:37:58.621Z,4.53
2019-04-27T06:40:48.957Z,4.23
2019-04-27T06:46:09.669Z,4.33
2019-04-27T06:48:39.470Z,4.40
2019-04-27T06:54:02.042Z,3.97
2019-04-27T06:56:30.387Z,4.60
2019-04-27T06:58:59.701Z,4.30
2019-04-27T07:04:31.145Z,3.87
2019-04-27T07:07:01.627Z,4.47
2019-04-27T07:09:49.276Z,4.60
2019-04-27T07:12:19.108Z,4.83
2019-04-27T07:14:54.462Z,4.60
2019-04-27T07:17:19.039Z,5.23
2019-04-27T07:19:49.572Z,5.57
2019-04-27T07:22:17.686Z,5.07
2019-04-27T07:24:46.729Z,4.87
2019-04-27T07:29:49.509Z,4.30
2019-04-27T07:37:44.792Z,4.80
2019-04-27T07:40:34.010Z,5.03
2019-04-27T07:45:45.017Z,4.37
2019-04-27T07:48:13.330Z,4.77
2019-04-27T07:50:41.635Z,4.43
2019-04-27T07:53:29.261Z,4.43
2019-04-27T07:55:59.202Z,4.60
2019-04-27T07:58:29.482Z,4.77
2019-04-27T08:00:59.448Z,4.77
2019-04-27T08:06:18.846Z,5.43
2019-04-27T08:08:46.968Z,4.67
2019-04-27T08:16:24.312Z,4.80
2019-04-27T08:18:52.595Z,4.13
2019-04-27T08:21:20.944Z,4.13
2019-04-27T08:29:45.414Z,4.60
2019-04-27T08:32:19.608Z,5.27
2019-04-27T08:37:35.866Z,4.70
2019-04-27T08:43:14.333Z,4.80
2019-04-27T08:45:42.625Z,4.87
2019-04-27T08:48:10.957Z,4.97
2019-04-27T08:50:41.769Z,4.37
2019-04-27T08:53:09.821Z,4.27
2019-04-27T08:55:39.624Z,4.30
2019-04-27T08:58:10.034Z,4.33
2019-04-27T09:00:39.234Z,4.03
2019-04-27T09:03:09.512Z,5.17
2019-04-27T09:05:38.991Z,4.43
2019-04-27T09:08:26.934Z,4.50
2019-04-27T09:11:14.168Z,4.33
2019-04-27T09:14:01.437Z,4.20
2019-04-27T09:16:59.698Z,4.47
2019-04-27T09:22:13.452Z,5.03
2019-04-27T09:24:36.305Z,4.33
2019-04-27T09:27:04.899Z,4.60
2019-04-27T09:29:33.317Z,4.17
2019-04-27T09:32:01.963Z,4.47
2019-04-27T09:34:29.436Z,4.27
2019-04-27T09:36:59.089Z,4.73
2019-04-27T09:39:27.378Z,4.30
2019-04-27T09:41:57.178Z,4.17
2019-04-27T09:44:26.703Z,4.00
2019-04-27T09:46:56.179Z,5.07
2019-04-27T09:49:26.369Z,4.77
2019-04-27T09:52:24.331Z,4.37
2019-04-27T09:54:45.081Z,5.33
2019-04-27T09:57:32.277Z,3.80
2019-04-27T10:00:00.714Z,4.50
2019-04-27T10:05:05.898Z,3.63
2019-04-27T10:07:35.757Z,3.80
2019-04-27T10:10:06.349Z,4.43
2019-04-27T10:12:36.907Z,4.33
2019-04-27T10:15:06.119Z,3.70
2019-04-27T10:17:34.813Z,3.83
2019-04-27T10:20:03.213Z,4.07
2019-04-27T10:22:40.373Z,4.30
2019-04-27T10:25:01.461Z,3.90
2019-04-27T10:27:29.757Z,3.77
2019-04-27T10:29:58.599Z,4.00
2019-04-27T10:32:29.147Z,4.23
2019-04-27T10:34:57.538Z,4.23
2019-04-27T10:37:26.077Z,3.83
2019-04-27T10:39:56.034Z,4.40
2019-04-27T10:45:06.279Z,4.23
2019-04-27T10:47:35.869Z,4.27
2019-04-27T10:50:05.829Z,4.67
2019-04-27T10:52:34.780Z,5.00
2019-04-27T10:55:03.117Z,4.33
2019-04-27T10:57:31.809Z,5.13
2019-04-27T11:02:47.641Z,4.87
2019-04-27T11:10:46.039Z,4.10
2019-04-27T11:13:16.355Z,4.57
2019-04-27T11:15:58.324Z,3.70
2019-04-27T11:18:17.006Z,4.57
2019-04-27T11:28:57.104Z,5.10
2019-04-27T11:31:44.337Z,4.80
2019-04-27T11:39:47.682Z,4.67
2019-04-27T11:42:16.018Z,4.53
2019-04-27T11:44:44.393Z,4.13
2019-04-27T11:47:31.702Z,4.50
2019-04-27T11:50:00.061Z,5.23
2019-04-27T11:52:28.407Z,5.07
2019-04-27T11:54:56.714Z,5.23
2019-04-27T11:57:25.309Z,4.43
2019-04-27T11:59:56.289Z,4.13
2019-04-27T12:02:45.631Z,4.83
2019-04-27T12:07:56.166Z,5.70
2019-04-27T12:10:46.427Z,4.70
2019-04-27T12:13:33.792Z,4.80
2019-04-27T12:16:02.114Z,4.53
2019-04-27T12:18:30.397Z,4.90
2019-04-27T12:21:17.740Z,4.70
2019-04-27T12:23:47.253Z,5.37
2019-04-27T12:26:36.288Z,5.30
2019-04-27T12:31:57.390Z,5.73
2019-04-27T12:34:27.824Z,6.10
2019-04-27T12:36:55.640Z,5.07
2019-04-27T12:39:23.962Z,5.53
2019-04-27T12:41:52.519Z,4.83
2019-04-27T12:44:20.863Z,4.67
2019-04-27T12:46:49.827Z,5.17
2019-04-27T12:49:18.071Z,5.33
2019-04-27T12:51:46.429Z,5.10
2019-04-27T12:57:30.184Z,4.97
2019-04-27T13:05:28.593Z,5.00
2019-04-27T13:07:56.942Z,5.83
2019-04-27T13:10:25.341Z,6.10
2019-04-27T13:12:53.653Z,5.77
2019-04-27T13:15:22.081Z,5.40
2019-04-27T13:17:50.437Z,5.47
2019-04-27T13:20:37.762Z,5.50
2019-04-27T13:23:07.327Z,5.80
2019-04-27T13:25:38.387Z,6.03
2019-04-27T13:28:06.523Z,6.60
2019-04-27T13:30:35.791Z,5.50
2019-04-27T13:33:05.097Z,5.03
2019-04-27T13:35:34.090Z,6.40
2019-04-27T13:38:03.373Z,7.00
2019-04-27T13:49:13.812Z,4.60
2019-04-27T13:52:01.154Z,4.47
2019-04-27T13:54:29.741Z,5.03
2019-04-27T13:57:18.425Z,5.03
2019-04-27T13:59:46.836Z,5.17
2019-04-27T14:02:15.952Z,5.07
2019-04-27T14:07:33.434Z,4.80
2019-04-27T14:10:01.738Z,5.00
2019-04-27T14:12:30.041Z,4.47
2019-04-27T14:23:20.166Z,5.00
2019-04-27T14:25:48.495Z,5.47
2019-04-27T14:28:18.339Z,4.80
2019-04-27T14:36:43.692Z,5.67
2019-04-27T14:42:02.081Z,5.47
2019-04-27T14:44:30.397Z,5.20
2019-04-27T14:46:59.177Z,5.00
2019-04-27T14:49:28.959Z,5.80
2019-04-27T14:51:58.918Z,5.13
2019-04-27T14:54:28.777Z,5.63
2019-04-27T14:59:31.060Z,4.67
2019-04-27T15:02:00.085Z,6.80
2019-04-27T15:04:31.388Z,7.03
2019-04-27T15:09:49.772Z,5.80
2019-04-27T15:12:17.195Z,6.43
2019-04-27T15:14:45.658Z,6.23
2019-04-27T15:25:20.047Z,5.20
2019-04-27T15:30:45.578Z,6.07
2019-04-27T15:33:32.809Z,5.37
2019-04-27T15:41:34.764Z,6.43
2019-04-27T15:44:05.943Z,6.37
2019-04-27T15:46:33.752Z,6.77
2019-04-27T15:51:54.776Z,5.43
2019-04-27T15:54:34.089Z,5.70
2019-04-27T15:57:05.803Z,6.10
2019-04-27T15:59:37.755Z,7.47
2019-04-27T16:02:05.452Z,5.87
2019-04-27T16:04:34.487Z,5.60
2019-04-27T16:07:02.786Z,7.17
2019-04-27T16:12:21.281Z,5.60
2019-04-27T16:14:49.613Z,6.10
2019-04-27T16:17:18.078Z,6.63
2019-04-27T16:19:50.311Z,6.33
2019-04-27T16:22:18.520Z,6.23
2019-04-27T16:24:49.532Z,5.67
2019-04-27T16:27:20.069Z,5.47
2019-04-27T16:29:49.228Z,6.10
2019-04-27T16:32:18.430Z,6.13
2019-04-27T16:34:47.859Z,6.10
2019-04-27T16:40:17.736Z,5.37
2019-04-27T16:42:50.678Z,5.57
2019-04-27T16:45:16.389Z,5.13
2019-04-27T16:47:44.685Z,4.93
2019-04-27T16:52:56.904Z,4.33
2019-04-27T16:55:27.955Z,5.03
2019-04-27T16:57:53.813Z,4.30
2019-04-27T17:00:22.638Z,5.10
2019-04-27T17:02:54.879Z,5.30
2019-04-27T17:05:24.472Z,4.80
2019-04-27T17:07:52.178Z,4.40
2019-04-27T17:10:25.466Z,5.00
2019-04-27T17:12:51.142Z,4.57
2019-04-27T17:15:41.942Z,5.47
2019-04-27T17:18:30.895Z,5.27
2019-04-27T17:21:02.652Z,5.10
2019-04-27T17:26:21.652Z,5.40
2019-04-27T17:34:18.918Z,4.67
2019-04-27T17:37:08.285Z,5.57
2019-04-27T17:39:38.745Z,3.97
2019-04-27T17:45:00.566Z,4.33
2019-04-27T17:47:30.060Z,4.73
2019-04-27T17:50:02.295Z,4.67
2019-04-27T17:52:30.593Z,4.57
2019-04-27T17:55:00.629Z,5.67
2019-04-27T17:57:30.380Z,5.30
2019-04-27T18:02:38.928Z,5.67
2019-04-27T18:07:45.713Z,4.97
2019-04-27T18:10:21.157Z,4.93
2019-04-27T18:12:44.541Z,4.63
2019-04-27T18:15:15.840Z,5.40
2019-04-27T18:31:22.129Z,4.83
2019-04-27T18:33:50.420Z,4.20
2019-04-27T18:36:18.745Z,4.43
2019-04-27T18:38:47.035Z,4.40
2019-04-27T18:41:15.429Z,4.93
2019-04-27T18:43:50.667Z,3.87
2019-04-27T18:46:14.986Z,4.53
2019-04-27T18:49:04.901Z,5.43
2019-04-27T18:54:15.357Z,3.90
2019-04-27T18:56:43.737Z,4.70
2019-04-27T18:59:30.965Z,4.33
2019-04-27T19:01:59.326Z,6.70
2019-04-27T19:04:28.183Z,5.87
2019-04-27T19:06:59.834Z,4.67
2019-04-27T19:09:27.515Z,4.70
2019-04-27T19:14:43.211Z,4.80
2019-04-27T19:17:11.494Z,5.47
2019-04-27T19:19:39.800Z,4.07
2019-04-27T19:22:08.949Z,4.47
2019-04-27T19:24:38.087Z,4.60
2019-04-27T19:32:40.233Z,4.50
2019-04-27T19:35:09.265Z,4.80
2019-04-27T19:37:37.990Z,4.77
2019-04-27T19:40:08.589Z,5.27
2019-04-27T19:42:38.621Z,4.83
2019-04-27T19:45:07.811Z,4.27
2019-04-27T19:47:36.116Z,4.77
2019-04-27T19:50:04.830Z,5.83
2019-04-27T19:52:33.109Z,5.47
2019-04-27T19:55:01.441Z,5.27
2019-04-27T19:57:37.777Z,7.53
2019-04-27T20:02:48.653Z,6.67
2019-04-27T20:10:47.337Z,5.77
2019-04-27T20:13:15.651Z,5.30
2019-04-27T20:15:43.946Z,5.67
2019-04-27T20:18:12.246Z,5.00
2019-04-27T20:20:40.550Z,5.07
2019-04-27T20:23:08.881Z,4.57
2019-04-27T20:25:37.181Z,5.80
2019-04-27T20:28:05.489Z,4.83
2019-04-27T20:30:33.789Z,5.57
2019-04-27T20:33:02.109Z,5.23
2019-04-27T20:35:30.433Z,4.83
2019-04-27T20:37:58.730Z,5.80
2019-04-27T20:40:27.028Z,5.03
2019-04-27T20:42:55.451Z,5.00
2019-04-27T20:45:23.749Z,4.40
2019-04-27T20:47:52.689Z,4.73
2019-04-27T20:52:57.413Z,4.90
2019-04-27T20:55:25.758Z,4.67
2019-04-27T20:58:01.784Z,4.53
2019-04-27T21:00:24.218Z,4.83
2019-04-27T21:03:11.912Z,5.40
2019-04-27T21:06:01.065Z,4.70
2019-04-27T21:08:31.454Z,4.67
2019-04-27T21:11:01.544Z,4.37
2019-04-27T21:13:29.706Z,4.37
2019-04-27T21:15:57.993Z,4.97
2019-04-27T21:18:26.284Z,4.07
2019-04-27T21:23:28.193Z,3.70
2019-04-27T21:25:56.506Z,4.37
2019-04-27T21:28:24.777Z,5.47
2019-04-27T21:30:53.093Z,5.37
2019-04-27T21:33:21.628Z,5.30
2019-04-27T21:35:51.186Z,5.27
2019-04-27T21:38:20.413Z,4.93
2019-04-27T21:40:48.831Z,6.30
2019-04-27T21:46:11.215Z,6.13
2019-04-27T21:48:41.418Z,5.13
2019-04-27T21:51:09.473Z,6.23
2019-04-27T21:53:56.662Z,6.03
2019-04-27T21:56:24.988Z,5.60
2019-04-27T21:58:53.305Z,6.47
2019-04-27T22:04:31.372Z,6.60
2019-04-27T22:07:01.242Z,6.03
2019-04-27T22:09:29.465Z,5.63
2019-04-27T22:11:57.756Z,6.10
2019-04-27T22:14:26.049Z,5.10
2019-04-27T22:16:54.345Z,5.30
2019-04-27T22:19:22.654Z,5.30
2019-04-27T22:21:52.086Z,5.00
2019-04-27T22:24:42.845Z,5.77
2019-04-27T22:27:09.736Z,5.70
2019-04-27T22:29:38.037Z,5.30
2019-04-27T22:32:06.458Z,4.80
2019-04-27T22:34:34.765Z,4.40
2019-04-27T22:40:11.991Z,4.43
2019-04-27T22:48:10.894Z,4.93
2019-04-27T22:50:41.302Z,4.80
2019-04-27T22:53:09.282Z,4.17
2019-04-27T23:01:09.966Z,4.97
2019-04-27T23:06:27.573Z,5.60
2019-04-27T23:08:55.885Z,5.17
2019-04-27T23:11:24.193Z,5.27
2019-04-27T23:13:52.559Z,5.67
2019-04-27T23:18:56.360Z,5.57
2019-04-27T23:21:43.601Z,5.77
2019-04-27T23:24:11.897Z,4.60
2019-04-27T23:26:40.201Z,5.87
2019-04-27T23:29:13.795Z,7.13
2019-04-27T23:34:18.598Z,5.77
2019-04-27T23:36:46.889Z,4.93
2019-04-27T23:39:15.277Z,4.70
2019-04-27T23:41:43.609Z,5.47
2019-04-27T23:44:11.912Z,6.13
2019-04-27T23:46:40.225Z,6.47
2019-04-27T23:49:08.505Z,6.83
2019-04-27T23:54:25.061Z,6.23
2019-04-27T23:56:53.375Z,6.57
2019-04-27T23:59:25.203Z,7.30
